createdAt,value
2018-10-21T00:02:27.465Z,20.67
2018-10-21T00:04:55.269Z,20.13
2018-10-21T00:07:23.426Z,21.33
2018-10-21T00:09:51.579Z,20.47
2018-10-21T00:12:19.709Z,18.03
2018-10-21T00:14:47.869Z,20.27
2018-10-21T00:17:16.019Z,21.07
2018-10-21T00:19:44.177Z,19.90
2018-10-21T00:22:12.418Z,19.53
2018-10-21T00:24:40.331Z,20.43
2018-10-21T00:27:08.432Z,21.57
2018-10-21T00:29:36.521Z,22.50
2018-10-21T00:32:04.737Z,23.67
2018-10-21T00:34:32.664Z,21.90
2018-10-21T00:37:00.809Z,23.10
2018-10-21T00:39:28.757Z,21.63
2018-10-21T00:41:56.677Z,21.90
2018-10-21T00:44:24.586Z,21.83
2018-10-21T00:46:52.757Z,19.70
2018-10-21T00:49:20.685Z,19.70
2018-10-21T00:51:48.613Z,20.23
2018-10-21T00:54:17.174Z,19.17
2018-10-21T00:56:46.301Z,20.37
2018-10-21T00:59:14.462Z,21.17
2018-10-21T01:01:42.592Z,20.63
2018-10-21T01:04:10.831Z,21.03
2018-10-21T01:06:38.894Z,21.83
2018-10-21T01:09:08.931Z,20.07
2018-10-21T01:11:37.125Z,19.80
2018-10-21T01:14:05.049Z,19.40
2018-10-21T01:16:32.973Z,22.10
2018-10-21T01:19:00.877Z,22.73
2018-10-21T01:21:28.840Z,22.00
2018-10-21T01:23:56.964Z,23.37
2018-10-21T01:26:24.856Z,21.83
2018-10-21T01:28:52.916Z,23.07
2018-10-21T01:31:20.829Z,21.43
2018-10-21T01:33:48.961Z,20.03
2018-10-21T01:36:17.114Z,20.80
2018-10-21T01:38:44.989Z,19.73
2018-10-21T01:41:13.114Z,20.13
2018-10-21T01:43:41.270Z,21.47
2018-10-21T01:46:09.409Z,20.03
2018-10-21T01:48:37.581Z,19.67
2018-10-21T01:51:05.502Z,20.60
2018-10-21T01:53:33.617Z,22.00
2018-10-21T01:56:01.783Z,20.77
2018-10-21T01:58:29.696Z,21.70
2018-10-21T02:00:58.553Z,20.77
2018-10-21T02:03:26.712Z,21.13
2018-10-21T02:05:54.845Z,19.53
2018-10-21T02:08:23.002Z,19.23
2018-10-21T02:10:51.149Z,17.70
2018-10-21T02:13:19.313Z,18.30
2018-10-21T02:15:47.450Z,18.63
2018-10-21T02:18:15.596Z,17.87
2018-10-21T02:20:43.728Z,18.50
2018-10-21T02:23:11.934Z,18.93
2018-10-21T02:25:40.074Z,17.77
2018-10-21T02:28:08.277Z,19.60
2018-10-21T02:30:36.153Z,18.33
2018-10-21T02:33:04.322Z,21.00
2018-10-21T02:35:32.466Z,21.07
2018-10-21T02:38:00.610Z,20.90
2018-10-21T02:41:39.933Z,21.53
2018-10-21T02:44:09.249Z,22.57
2018-10-21T02:46:38.026Z,23.23
2018-10-21T02:49:06.806Z,22.53
2018-10-21T02:51:34.958Z,21.77
2018-10-21T02:54:03.110Z,22.97
2018-10-21T02:56:31.051Z,22.27
2018-10-21T02:58:59.181Z,21.77
2018-10-21T03:01:27.333Z,21.57
2018-10-21T03:03:55.499Z,20.20
2018-10-21T03:06:23.630Z,21.97
2018-10-21T03:08:51.806Z,22.70
2018-10-21T03:11:19.959Z,21.63
2018-10-21T03:13:47.865Z,21.70
2018-10-21T03:16:16.000Z,21.23
2018-10-21T03:18:44.150Z,19.17
2018-10-21T03:21:12.391Z,19.37
2018-10-21T03:23:40.472Z,20.63
2018-10-21T03:26:08.595Z,22.73
2018-10-21T03:28:36.775Z,21.43
2018-10-21T03:31:04.919Z,20.90
2018-10-21T03:33:33.237Z,22.37
2018-10-21T03:36:01.253Z,23.37
2018-10-21T03:38:29.449Z,22.33
2018-10-21T03:40:57.670Z,21.77
2018-10-21T03:43:25.884Z,21.27
2018-10-21T03:45:54.098Z,22.03
2018-10-21T03:48:22.221Z,21.27
2018-10-21T03:50:50.369Z,21.87
2018-10-21T03:53:18.325Z,19.50
2018-10-21T03:55:46.482Z,18.40
2018-10-21T03:58:14.722Z,19.40
2018-10-21T04:00:42.822Z,19.60
2018-10-21T04:03:10.993Z,18.30
2018-10-21T04:05:38.921Z,18.70
2018-10-21T04:08:07.096Z,17.83
2018-10-21T04:10:35.278Z,20.40
2018-10-21T04:13:03.454Z,18.37
2018-10-21T04:15:31.425Z,17.13
2018-10-21T04:17:59.585Z,18.07
2018-10-21T04:20:28.006Z,16.63
2018-10-21T04:22:57.163Z,16.70
2018-10-21T04:25:26.101Z,18.00
2018-10-21T04:27:55.207Z,18.57
2018-10-21T04:30:25.330Z,18.63
2018-10-21T04:33:00.355Z,18.07
2018-10-21T04:35:29.481Z,19.23
2018-10-21T04:38:22.058Z,18.80
2018-10-21T04:40:50.205Z,19.07
2018-10-21T04:43:18.431Z,18.70
2018-10-21T04:45:46.570Z,20.80
2018-10-21T04:48:14.722Z,21.23
2018-10-21T04:50:43.082Z,20.93
2018-10-21T04:53:11.001Z,19.47
2018-10-21T04:55:38.929Z,20.50
2018-10-21T04:58:07.163Z,21.07
2018-10-21T05:00:35.076Z,20.97
2018-10-21T05:03:03.246Z,21.60
2018-10-21T05:05:31.409Z,19.63
2018-10-21T05:07:59.569Z,17.57
2018-10-21T05:10:31.813Z,20.30
2018-10-21T05:12:59.982Z,20.23
2018-10-21T05:15:29.372Z,19.03
2018-10-21T05:17:57.464Z,17.67
2018-10-21T05:20:25.654Z,17.83
2018-10-21T05:22:53.838Z,19.43
2018-10-21T05:25:22.109Z,17.07
2018-10-21T05:27:50.251Z,18.57
2018-10-21T05:30:18.382Z,20.83
2018-10-21T05:32:46.534Z,20.67
2018-10-21T05:35:15.690Z,19.60
2018-10-21T05:37:43.968Z,19.80
2018-10-21T05:40:14.443Z,18.70
2018-10-21T05:42:42.964Z,18.20
2018-10-21T05:45:10.895Z,18.83
2018-10-21T05:47:39.269Z,17.10
2018-10-21T05:50:07.725Z,18.73
2018-10-21T05:52:36.001Z,17.63
2018-10-21T05:55:04.174Z,17.83
2018-10-21T05:57:32.309Z,21.00
2018-10-21T06:00:00.449Z,25.53
2018-10-21T06:02:28.577Z,17.30
2018-10-21T06:04:56.489Z,18.17
2018-10-21T06:07:24.646Z,18.83
2018-10-21T06:09:52.882Z,20.03
2018-10-21T06:12:21.090Z,18.33
2018-10-21T06:14:49.969Z,19.23
2018-10-21T06:17:21.909Z,21.83
2018-10-21T06:19:55.418Z,20.03
2018-10-21T06:22:23.319Z,18.87
2018-10-21T06:24:51.233Z,19.63
2018-10-21T06:27:19.133Z,25.43
2018-10-21T06:29:47.289Z,18.83
2018-10-21T06:32:15.435Z,21.30
2018-10-21T06:34:43.594Z,21.20
2018-10-21T06:37:11.733Z,21.83
2018-10-21T06:39:39.633Z,20.00
2018-10-21T06:42:07.541Z,20.47
2018-10-21T06:44:35.665Z,21.00
2018-10-21T06:47:03.790Z,21.33
2018-10-21T06:49:31.926Z,20.50
2018-10-21T06:52:00.046Z,25.13
2018-10-21T06:54:28.237Z,25.73
2018-10-21T06:56:56.447Z,26.03
2018-10-21T06:59:24.559Z,20.83
2018-10-21T07:01:52.671Z,20.77
2018-10-21T07:04:20.794Z,20.80
2018-10-21T07:06:48.685Z,21.63
2018-10-21T07:09:16.818Z,25.53
2018-10-21T07:11:44.961Z,18.57
2018-10-21T07:14:12.865Z,21.47
2018-10-21T07:16:40.956Z,20.37
2018-10-21T07:19:08.730Z,20.33
2018-10-21T07:21:37.415Z,19.53
2018-10-21T07:24:06.098Z,20.17
2018-10-21T07:26:33.996Z,20.47
2018-10-21T07:29:02.138Z,19.33
2018-10-21T07:31:30.279Z,20.10
2018-10-21T07:33:58.446Z,19.47
2018-10-21T07:36:26.604Z,18.10
2018-10-21T07:38:54.714Z,19.73
2018-10-21T07:41:22.905Z,18.80
2018-10-21T07:43:50.805Z,20.17
2018-10-21T07:46:18.814Z,20.77
2018-10-21T07:48:46.651Z,21.00
2018-10-21T07:51:14.802Z,21.53
2018-10-21T07:53:42.937Z,21.00
2018-10-21T07:56:10.891Z,24.23
2018-10-21T07:58:39.053Z,24.97
2018-10-21T08:01:07.245Z,26.90
2018-10-21T08:03:35.388Z,23.70
2018-10-21T08:06:26.550Z,22.57
2018-10-21T08:08:54.505Z,19.23
2018-10-21T08:11:22.689Z,19.77
2018-10-21T08:13:50.921Z,21.47
2018-10-21T08:16:18.961Z,26.47
2018-10-21T08:18:46.819Z,26.80
2018-10-21T08:21:14.808Z,25.53
2018-10-21T08:23:42.914Z,24.23
2018-10-21T08:26:11.070Z,27.57
2018-10-21T08:28:39.253Z,27.10
2018-10-21T08:31:07.406Z,28.07
2018-10-21T08:33:35.581Z,24.60
2018-10-21T08:36:03.815Z,25.53
2018-10-21T08:38:31.873Z,24.53
2018-10-21T08:41:00.073Z,23.47
2018-10-21T08:43:28.211Z,22.47
2018-10-21T08:45:56.149Z,23.03
2018-10-21T08:48:24.263Z,23.67
2018-10-21T08:50:52.401Z,25.33
2018-10-21T08:53:20.945Z,26.30
2018-10-21T08:55:48.972Z,26.20
2018-10-21T08:58:17.114Z,28.53
2018-10-21T09:00:45.230Z,27.97
2018-10-21T09:03:13.813Z,29.00
2018-10-21T09:05:41.926Z,29.87
2018-10-21T09:08:10.230Z,29.47
2018-10-21T09:10:38.173Z,30.87
2018-10-21T09:13:06.294Z,30.83
2018-10-21T09:15:34.546Z,30.87
2018-10-21T09:18:02.625Z,32.63
2018-10-21T09:20:30.754Z,31.23
2018-10-21T09:22:58.897Z,35.23
2018-10-21T09:25:26.813Z,34.83
2018-10-21T09:27:54.940Z,32.90
2018-10-21T09:30:23.584Z,32.23
2018-10-21T09:32:51.726Z,33.43
2018-10-21T09:35:19.907Z,34.20
2018-10-21T09:37:48.074Z,34.17
2018-10-21T09:40:17.495Z,34.30
2018-10-21T09:42:46.104Z,34.80
2018-10-21T09:45:16.682Z,37.27
2018-10-21T09:47:44.883Z,39.13
2018-10-21T09:50:13.129Z,38.63
2018-10-21T09:52:41.038Z,40.27
2018-10-21T09:55:14.789Z,40.13
2018-10-21T09:57:43.091Z,40.53
2018-10-21T10:00:11.088Z,40.50
2018-10-21T10:02:44.621Z,37.57
2018-10-21T10:05:12.578Z,38.97
2018-10-21T10:07:40.433Z,37.13
2018-10-21T10:10:09.013Z,38.30
2018-10-21T10:12:37.135Z,36.43
2018-10-21T10:15:05.773Z,34.50
2018-10-21T10:17:33.991Z,34.70
2018-10-21T10:20:02.098Z,33.20
2018-10-21T10:22:30.258Z,31.73
2018-10-21T10:24:58.396Z,30.97
2018-10-21T10:27:26.542Z,29.83
2018-10-21T10:29:54.769Z,29.53
2018-10-21T10:32:22.907Z,29.13
2018-10-21T10:34:51.075Z,30.33
2018-10-21T10:37:19.234Z,28.33
2018-10-21T10:39:47.382Z,28.43
2018-10-21T10:42:15.592Z,27.20
2018-10-21T10:44:43.666Z,27.93
2018-10-21T10:47:11.834Z,28.00
2018-10-21T10:49:39.990Z,26.87
2018-10-21T10:52:08.311Z,27.57
2018-10-21T10:54:36.434Z,27.93
2018-10-21T10:57:04.646Z,26.20
2018-10-21T10:59:32.881Z,27.10
2018-10-21T11:02:01.086Z,26.23
2018-10-21T11:04:29.266Z,26.00
2018-10-21T11:06:57.608Z,25.87
2018-10-21T11:09:25.742Z,25.97
2018-10-21T11:11:53.658Z,24.53
2018-10-21T11:14:21.838Z,26.03
2018-10-21T11:16:49.760Z,24.60
2018-10-21T11:19:22.078Z,23.27
2018-10-21T11:21:50.123Z,23.10
2018-10-21T11:24:18.263Z,23.67
2018-10-21T11:26:46.459Z,22.97
2018-10-21T11:29:14.704Z,22.67
2018-10-21T11:31:42.894Z,22.73
2018-10-21T11:34:11.090Z,21.80
2018-10-21T11:36:39.429Z,20.50
2018-10-21T11:39:08.043Z,20.73
2018-10-21T11:41:36.215Z,26.93
2018-10-21T11:44:04.571Z,19.10
2018-10-21T11:46:33.057Z,19.33
2018-10-21T11:49:00.863Z,20.20
2018-10-21T11:51:28.809Z,18.20
2018-10-21T11:53:56.979Z,18.60
2018-10-21T11:56:25.110Z,17.80
2018-10-21T11:58:53.330Z,19.70
2018-10-21T12:01:21.245Z,16.63
2018-10-21T12:03:49.357Z,17.07
2018-10-21T12:06:17.470Z,17.03
2018-10-21T12:08:45.594Z,18.43
2018-10-21T12:11:13.834Z,18.33
2018-10-21T12:13:41.970Z,17.80
2018-10-21T12:16:10.246Z,18.10
2018-10-21T12:18:39.366Z,16.90
2018-10-21T12:21:07.566Z,15.90
2018-10-21T12:23:35.556Z,15.47
2018-10-21T12:26:04.549Z,16.33
2018-10-21T12:28:32.797Z,16.10
2018-10-21T12:31:01.180Z,16.20
2018-10-21T12:33:30.952Z,15.53
2018-10-21T12:35:59.131Z,16.57
2018-10-21T12:38:27.325Z,16.47
2018-10-21T12:40:55.508Z,15.73
2018-10-21T12:43:23.690Z,15.77
2018-10-21T12:45:51.665Z,15.07
2018-10-21T12:48:19.848Z,14.80
2018-10-21T12:50:48.050Z,15.43
2018-10-21T12:53:16.278Z,15.13
2018-10-21T12:55:48.521Z,14.63
2018-10-21T12:58:16.958Z,14.50
2018-10-21T13:00:45.099Z,16.07
2018-10-21T13:03:13.326Z,15.00
2018-10-21T13:05:41.823Z,13.90
2018-10-21T13:08:09.809Z,12.93
2018-10-21T13:10:37.946Z,13.67
2018-10-21T13:13:05.964Z,12.80
2018-10-21T13:15:34.090Z,11.80
2018-10-21T13:18:02.366Z,11.77
2018-10-21T13:20:30.557Z,11.47
2018-10-21T13:22:58.748Z,10.50
2018-10-21T13:25:26.911Z,9.03
2018-10-21T13:27:55.094Z,9.37
2018-10-21T13:30:23.258Z,8.87
2018-10-21T13:32:51.411Z,9.10
2018-10-21T13:35:20.334Z,8.90
2018-10-21T13:37:48.498Z,8.93
2018-10-21T13:40:16.722Z,8.30
2018-10-21T13:42:44.814Z,8.70
2018-10-21T13:45:12.848Z,8.57
2018-10-21T13:47:40.774Z,8.73
2018-10-21T13:50:08.934Z,8.10
2018-10-21T13:52:37.143Z,7.40
2018-10-21T13:55:05.069Z,6.67
2018-10-21T13:57:33.177Z,6.73
2018-10-21T14:00:01.383Z,7.80
2018-10-21T14:02:29.550Z,7.20
2018-10-21T14:04:57.732Z,7.23
2018-10-21T14:07:25.968Z,6.50
2018-10-21T14:09:54.190Z,6.67
2018-10-21T14:12:22.310Z,7.10
2018-10-21T14:14:50.491Z,7.10
2018-10-21T14:17:18.577Z,7.03
2018-10-21T14:19:46.698Z,7.83
2018-10-21T14:22:15.237Z,6.37
2018-10-21T14:24:43.095Z,6.13
2018-10-21T14:27:11.139Z,5.20
2018-10-21T14:29:39.271Z,3.50
2018-10-21T14:32:07.411Z,3.20
2018-10-21T14:34:35.557Z,2.70
2018-10-21T14:37:03.730Z,3.30
2018-10-21T14:39:31.909Z,3.00
2018-10-21T14:42:00.131Z,2.70
2018-10-21T14:44:28.283Z,8.80
2018-10-21T14:46:56.446Z,4.40
2018-10-21T14:49:24.604Z,2.97
2018-10-21T14:51:52.778Z,2.80
2018-10-21T14:54:20.947Z,3.30
2018-10-21T14:56:48.849Z,3.57
2018-10-21T14:59:16.982Z,2.70
2018-10-21T15:01:45.113Z,3.33
2018-10-21T15:04:13.334Z,2.60
2018-10-21T15:06:41.437Z,2.93
2018-10-21T15:09:11.262Z,3.23
2018-10-21T15:11:39.418Z,2.97
2018-10-21T15:14:08.477Z,2.60
2018-10-21T15:16:36.625Z,2.77
2018-10-21T15:19:04.855Z,2.67
2018-10-21T15:21:33.012Z,2.70
2018-10-21T15:24:00.930Z,4.30
2018-10-21T15:26:29.057Z,4.10
2018-10-21T15:28:57.287Z,2.70
2018-10-21T15:31:25.801Z,4.00
2018-10-21T15:33:55.867Z,3.30
2018-10-21T15:36:25.727Z,3.47
2018-10-21T15:38:53.961Z,2.20
2018-10-21T15:41:22.465Z,3.20
2018-10-21T15:43:50.420Z,2.80
2018-10-21T15:46:18.740Z,2.23
2018-10-21T15:48:47.956Z,2.60
2018-10-21T15:51:15.814Z,2.70
2018-10-21T15:53:43.705Z,2.60
2018-10-21T15:56:11.889Z,2.80
2018-10-21T15:58:40.022Z,2.43
2018-10-21T16:01:08.163Z,3.50
2018-10-21T16:03:36.306Z,3.17
2018-10-21T16:06:04.874Z,2.80
2018-10-21T16:08:33.017Z,5.90
2018-10-21T16:11:01.154Z,5.60
2018-10-21T16:13:29.295Z,10.77
2018-10-21T16:15:57.487Z,16.63
2018-10-21T16:18:25.590Z,5.80
2018-10-21T16:20:53.711Z,5.53
2018-10-21T16:23:21.838Z,3.67
2018-10-21T16:25:49.999Z,3.30
2018-10-21T16:28:18.180Z,2.70
2018-10-21T16:30:46.293Z,2.80
2018-10-21T16:33:14.414Z,3.37
2018-10-21T16:35:42.328Z,4.23
2018-10-21T16:38:10.476Z,4.87
2018-10-21T16:40:38.612Z,3.80
2018-10-21T16:43:06.761Z,3.53
2018-10-21T16:45:34.688Z,3.50
2018-10-21T16:48:02.620Z,3.00
2018-10-21T16:50:30.762Z,3.30
2018-10-21T16:52:59.017Z,3.30
2018-10-21T16:55:27.090Z,2.80
2018-10-21T16:57:55.249Z,3.10
2018-10-21T17:00:23.503Z,2.80
2018-10-21T17:02:51.562Z,2.87
2018-10-21T17:05:19.733Z,3.10
2018-10-21T17:07:47.878Z,3.23
2018-10-21T17:10:16.090Z,2.80
2018-10-21T17:12:43.946Z,2.83
2018-10-21T17:15:12.401Z,3.03
2018-10-21T17:17:44.786Z,2.67
2018-10-21T17:20:17.841Z,2.80
2018-10-21T17:22:46.195Z,2.83
2018-10-21T17:25:14.914Z,2.60
2018-10-21T17:27:43.114Z,2.53
2018-10-21T17:30:13.985Z,2.30
2018-10-21T17:32:43.081Z,2.50
2018-10-21T17:35:11.270Z,2.83
2018-10-21T17:37:39.725Z,2.80
2018-10-21T17:40:08.649Z,2.70
2018-10-21T17:42:36.895Z,2.90
2018-10-21T17:45:05.952Z,2.40
2018-10-21T17:47:34.054Z,3.33
2018-10-21T17:50:02.189Z,2.90
2018-10-21T17:52:30.381Z,2.77
2018-10-21T17:54:58.506Z,3.23
2018-10-21T17:57:26.343Z,2.73
2018-10-21T17:59:54.237Z,2.90
2018-10-21T18:02:22.353Z,2.47
2018-10-21T18:04:50.473Z,3.20
2018-10-21T18:07:18.642Z,3.80
2018-10-21T18:09:46.714Z,3.53
2018-10-21T18:12:14.838Z,3.70
2018-10-21T18:14:42.807Z,4.37
2018-10-21T18:17:10.699Z,3.97
2018-10-21T18:19:38.804Z,4.60
2018-10-21T18:22:06.962Z,5.37
2018-10-21T18:24:35.035Z,5.70
2018-10-21T18:27:02.936Z,5.10
2018-10-21T18:29:31.056Z,5.13
2018-10-21T18:31:58.964Z,4.37
2018-10-21T18:34:26.864Z,4.27
2018-10-21T18:36:54.819Z,4.00
2018-10-21T18:39:22.901Z,3.50
2018-10-21T18:41:51.013Z,3.97
2018-10-21T18:44:18.909Z,3.77
2018-10-21T18:46:46.805Z,3.63
2018-10-21T18:49:14.795Z,4.17
2018-10-21T18:51:42.653Z,4.57
2018-10-21T18:54:10.557Z,5.90
2018-10-21T18:56:38.694Z,5.40
2018-10-21T18:59:06.848Z,3.90
2018-10-21T19:01:35.004Z,3.97
2018-10-21T19:04:03.626Z,4.53
2018-10-21T19:06:31.658Z,4.53
2018-10-21T19:08:59.786Z,4.77
2018-10-21T19:11:27.694Z,4.83
2018-10-21T19:13:55.624Z,5.33
2018-10-21T19:16:23.749Z,7.43
2018-10-21T19:18:52.465Z,6.07
2018-10-21T19:21:20.698Z,6.20
2018-10-21T19:23:48.854Z,5.43
2018-10-21T19:26:16.769Z,5.50
2018-10-21T19:28:44.665Z,7.07
2018-10-21T19:31:12.823Z,8.00
2018-10-21T19:33:41.012Z,8.87
2018-10-21T19:36:09.133Z,9.63
2018-10-21T19:38:37.270Z,7.77
2018-10-21T19:41:05.441Z,8.60
2018-10-21T19:43:33.410Z,8.00
2018-10-21T19:46:01.539Z,7.70
2018-10-21T19:48:29.638Z,7.50
2018-10-21T19:50:57.548Z,7.47
2018-10-21T19:53:25.738Z,6.70
2018-10-21T19:55:54.461Z,5.10
2018-10-21T19:58:22.632Z,5.20
2018-10-21T20:00:50.781Z,5.37
2018-10-21T20:03:18.690Z,4.60
2018-10-21T20:05:46.617Z,6.53
2018-10-21T20:08:14.759Z,5.90
2018-10-21T20:10:42.891Z,7.20
2018-10-21T20:13:10.868Z,7.37
2018-10-21T20:15:38.713Z,8.23
2018-10-21T20:18:06.659Z,7.63
2018-10-21T20:20:34.830Z,7.30
2018-10-21T20:23:02.765Z,7.17
2018-10-21T20:25:30.692Z,8.67
2018-10-21T20:27:58.695Z,9.35
2018-10-21T20:30:26.748Z,9.00
2018-10-21T20:32:54.963Z,10.03
2018-10-21T20:35:22.806Z,9.87
2018-10-21T20:37:50.958Z,10.10
2018-10-21T20:40:18.899Z,9.73
2018-10-21T20:42:47.206Z,10.10
2018-10-21T20:45:15.133Z,10.13
2018-10-21T20:47:43.033Z,8.57
2018-10-21T20:50:10.953Z,8.87
2018-10-21T20:52:38.861Z,9.17
2018-10-21T20:55:07.220Z,8.00
2018-10-21T20:57:35.117Z,9.57
2018-10-21T21:00:03.309Z,8.10
2018-10-21T21:02:31.411Z,7.37
2018-10-21T21:04:59.311Z,8.27
2018-10-21T21:07:27.455Z,7.43
2018-10-21T21:09:55.373Z,8.80
2018-10-21T21:12:23.511Z,7.93
2018-10-21T21:14:51.663Z,8.07
2018-10-21T21:17:19.957Z,11.13
2018-10-21T21:19:48.094Z,13.43
2018-10-21T21:22:16.301Z,13.60
2018-10-21T21:24:44.785Z,12.87
2018-10-21T21:27:12.922Z,11.43
2018-10-21T21:29:41.185Z,13.20
2018-10-21T21:32:09.374Z,12.40
2018-10-21T21:34:37.298Z,12.20
2018-10-21T21:37:05.456Z,10.30
2018-10-21T21:39:33.586Z,9.50
2018-10-21T21:42:01.782Z,8.00
2018-10-21T21:44:29.893Z,7.73
2018-10-21T21:46:58.063Z,8.10
2018-10-21T21:49:26.207Z,7.87
2018-10-21T21:51:54.110Z,7.33
2018-10-21T21:54:22.218Z,7.70
2018-10-21T21:56:50.366Z,7.23
2018-10-21T21:59:18.483Z,10.20
2018-10-21T22:01:46.609Z,7.73
2018-10-21T22:04:14.752Z,7.20
2018-10-21T22:06:42.653Z,6.93
2018-10-21T22:09:11.661Z,7.03
2018-10-21T22:11:39.859Z,6.10
2018-10-21T22:14:08.503Z,6.67
2018-10-21T22:16:36.657Z,6.80
2018-10-21T22:19:04.979Z,6.97
2018-10-21T22:21:33.030Z,7.10
2018-10-21T22:24:00.962Z,6.57
2018-10-21T22:26:29.077Z,6.90
2018-10-21T22:28:57.421Z,7.33
2018-10-21T22:31:25.621Z,7.40
2018-10-21T22:33:53.760Z,7.00
2018-10-21T22:36:21.898Z,7.77
2018-10-21T22:38:50.025Z,8.13
2018-10-21T22:41:18.301Z,7.33
2018-10-21T22:43:46.419Z,7.90
2018-10-21T22:46:14.819Z,8.07
2018-10-21T22:48:42.665Z,7.27
2018-10-21T22:51:10.789Z,7.33
2018-10-21T22:53:38.926Z,6.60
2018-10-21T22:56:07.074Z,7.87
2018-10-21T22:58:35.010Z,7.80
2018-10-21T23:01:02.924Z,7.03
2018-10-21T23:03:31.068Z,6.97
2018-10-21T23:05:59.004Z,7.37
2018-10-21T23:08:26.892Z,7.00
2018-10-21T23:10:54.812Z,6.97
2018-10-21T23:13:22.951Z,7.43
2018-10-21T23:15:50.845Z,7.47
2018-10-21T23:18:18.780Z,7.30
2018-10-21T23:20:46.677Z,7.40
2018-10-21T23:23:14.813Z,7.73
2018-10-21T23:25:42.987Z,7.60
2018-10-21T23:28:11.186Z,7.13
2018-10-21T23:30:39.264Z,6.93
2018-10-21T23:33:07.174Z,7.10
2018-10-21T23:35:35.302Z,7.70
2018-10-21T23:38:03.449Z,7.50
2018-10-21T23:40:31.573Z,7.80
2018-10-21T23:42:59.752Z,7.03
2018-10-21T23:45:27.916Z,7.00
2018-10-21T23:47:56.128Z,7.07
2018-10-21T23:50:24.217Z,6.23
2018-10-21T23:52:52.366Z,7.30
2018-10-21T23:55:20.554Z,7.37
2018-10-21T23:57:48.701Z,7.50
